sensor_id;sensor_type;location;lat;lon;timestamp;pressure;altitude;pressure_sealevel;temperature;humidity
48652;BME280;34442;52.362;-1.302;2023-08-07T00:01:42;100666.97;;;15.25;100.00
48652;BME280;34442;52.362;-1.302;2023-08-07T00:04:07;100668.94;;;15.18;100.00
48652;BME280;34442;52.362;-1.302;2023-08-07T00:06:33;100667.91;;;15.19;100.00
48652;BME280;34442;52.362;-1.302;2023-08-07T00:08:58;100656.47;;;15.17;100.00
48652;BME280;34442;52.362;-1.302;2023-08-07T00:11:24;100656.25;;;15.19;100.00
48652;BME280;34442;52.362;-1.302;2023-08-07T00:13:49;100652.09;;;15.16;100.00
48652;BME280;34442;52.362;-1.302;2023-08-07T00:16:14;100659.88;;;15.12;100.00
48652;BME280;34442;52.362;-1.302;2023-08-07T00:18:40;100662.81;;;15.11;100.00
48652;BME280;34442;52.362;-1.302;2023-08-07T00:21:05;100660.31;;;15.09;100.00
48652;BME280;34442;52.362;-1.302;2023-08-07T00:23:31;100651.59;;;15.07;100.00
48652;BME280;34442;52.362;-1.302;2023-08-07T00:25:56;100652.69;;;15.06;100.00
48652;BME280;34442;52.362;-1.302;2023-08-07T00:28:21;100654.78;;;15.04;100.00
48652;BME280;34442;52.362;-1.302;2023-08-07T00:30:47;100652.06;;;15.04;100.00
48652;BME280;34442;52.362;-1.302;2023-08-07T00:33:12;100646.88;;;15.03;100.00
48652;BME280;34442;52.362;-1.302;2023-08-07T00:35:38;100655.59;;;15.05;100.00
48652;BME280;34442;52.362;-1.302;2023-08-07T00:38:04;100652.31;;;15.03;100.00
48652;BME280;34442;52.362;-1.302;2023-08-07T00:40:36;100651.94;;;14.99;100.00
48652;BME280;34442;52.362;-1.302;2023-08-07T00:43:01;100654.25;;;14.96;100.00
48652;BME280;34442;52.362;-1.302;2023-08-07T00:45:27;100651.63;;;14.89;100.00
48652;BME280;34442;52.362;-1.302;2023-08-07T00:47:52;100652.50;;;14.89;100.00
48652;BME280;34442;52.362;-1.302;2023-08-07T00:50:18;100651.88;;;14.87;100.00
48652;BME280;34442;52.362;-1.302;2023-08-07T00:52:44;100647.38;;;14.81;100.00
48652;BME280;34442;52.362;-1.302;2023-08-07T00:55:09;100651.13;;;14.80;100.00
48652;BME280;34442;52.362;-1.302;2023-08-07T00:57:35;100656.34;;;14.82;100.00
48652;BME280;34442;52.362;-1.302;2023-08-07T01:00:02;100649.47;;;14.79;100.00
48652;BME280;34442;52.362;-1.302;2023-08-07T01:02:27;100643.69;;;14.76;100.00
48652;BME280;34442;52.362;-1.302;2023-08-07T01:04:53;100655.81;;;14.73;100.00
48652;BME280;34442;52.362;-1.302;2023-08-07T01:07:18;100646.84;;;14.73;100.00
48652;BME280;34442;52.362;-1.302;2023-08-07T01:09:44;100644.53;;;14.58;100.00
48652;BME280;34442;52.362;-1.302;2023-08-07T01:12:16;100643.94;;;14.56;100.00
48652;BME280;34442;52.362;-1.302;2023-08-07T01:14:51;100644.69;;;14.63;100.00
48652;BME280;34442;52.362;-1.302;2023-08-07T01:17:20;100644.00;;;14.68;100.00
48652;BME280;34442;52.362;-1.302;2023-08-07T01:19:47;100637.53;;;14.69;100.00
48652;BME280;34442;52.362;-1.302;2023-08-07T01:22:17;100633.78;;;14.70;100.00
48652;BME280;34442;52.362;-1.302;2023-08-07T01:24:45;100633.78;;;14.70;100.00
48652;BME280;34442;52.362;-1.302;2023-08-07T01:32:23;100636.56;;;14.63;100.00
48652;BME280;34442;52.362;-1.302;2023-08-07T01:34:50;100631.16;;;14.63;100.00
48652;BME280;34442;52.362;-1.302;2023-08-07T01:37:17;100630.09;;;14.64;100.00
48652;BME280;34442;52.362;-1.302;2023-08-07T01:39:44;100632.78;;;14.64;100.00
48652;BME280;34442;52.362;-1.302;2023-08-07T01:42:11;100631.59;;;14.60;100.00
48652;BME280;34442;52.362;-1.302;2023-08-07T01:44:37;100635.97;;;14.61;100.00
48652;BME280;34442;52.362;-1.302;2023-08-07T01:47:03;100638.00;;;14.66;100.00
48652;BME280;34442;52.362;-1.302;2023-08-07T01:49:28;100632.78;;;14.64;100.00
48652;BME280;34442;52.362;-1.302;2023-08-07T01:51:54;100632.22;;;14.62;100.00
48652;BME280;34442;52.362;-1.302;2023-08-07T01:54:19;100627.88;;;14.61;100.00
48652;BME280;34442;52.362;-1.302;2023-08-07T01:56:45;100633.72;;;14.58;100.00
48652;BME280;34442;52.362;-1.302;2023-08-07T01:59:10;100639.56;;;14.55;100.00
48652;BME280;34442;52.362;-1.302;2023-08-07T02:01:35;100634.41;;;14.53;100.00
48652;BME280;34442;52.362;-1.302;2023-08-07T02:04:01;100630.25;;;14.51;100.00
48652;BME280;34442;52.362;-1.302;2023-08-07T02:06:26;100631.31;;;14.50;100.00
48652;BME280;34442;52.362;-1.302;2023-08-07T02:08:51;100630.69;;;14.48;100.00
48652;BME280;34442;52.362;-1.302;2023-08-07T02:11:17;100624.25;;;14.49;100.00
48652;BME280;34442;52.362;-1.302;2023-08-07T02:13:42;100623.03;;;14.45;100.00
48652;BME280;34442;52.362;-1.302;2023-08-07T02:16:08;100619.84;;;14.48;100.00
48652;BME280;34442;52.362;-1.302;2023-08-07T02:18:33;100623.38;;;14.48;100.00
48652;BME280;34442;52.362;-1.302;2023-08-07T02:20:58;100621.34;;;14.44;100.00
48652;BME280;34442;52.362;-1.302;2023-08-07T02:23:24;100629.47;;;14.44;100.00
48652;BME280;34442;52.362;-1.302;2023-08-07T02:25:50;100631.59;;;14.42;100.00
48652;BME280;34442;52.362;-1.302;2023-08-07T02:28:15;100632.66;;;14.40;100.00
48652;BME280;34442;52.362;-1.302;2023-08-07T02:30:41;100625.44;;;14.34;100.00
48652;BME280;34442;52.362;-1.302;2023-08-07T02:33:06;100635.28;;;14.29;100.00
48652;BME280;34442;52.362;-1.302;2023-08-07T02:35:31;100636.53;;;14.26;100.00
48652;BME280;34442;52.362;-1.302;2023-08-07T02:37:57;100644.88;;;14.25;100.00
48652;BME280;34442;52.362;-1.302;2023-08-07T02:40:22;100642.63;;;14.22;100.00
48652;BME280;34442;52.362;-1.302;2023-08-07T02:42:48;100648.03;;;14.22;100.00
48652;BME280;34442;52.362;-1.302;2023-08-07T02:45:13;100639.09;;;14.21;100.00
48652;BME280;34442;52.362;-1.302;2023-08-07T02:47:39;100646.00;;;14.17;100.00
48652;BME280;34442;52.362;-1.302;2023-08-07T02:50:04;100651.56;;;14.22;100.00
48652;BME280;34442;52.362;-1.302;2023-08-07T02:52:30;100649.47;;;14.24;100.00
48652;BME280;34442;52.362;-1.302;2023-08-07T02:54:55;100640.69;;;14.29;100.00
48652;BME280;34442;52.362;-1.302;2023-08-07T02:57:21;100644.22;;;14.29;100.00
48652;BME280;34442;52.362;-1.302;2023-08-07T02:59:46;100646.53;;;14.26;100.00
48652;BME280;34442;52.362;-1.302;2023-08-07T03:02:11;100641.38;;;14.24;100.00
48652;BME280;34442;52.362;-1.302;2023-08-07T03:04:37;100646.09;;;14.29;100.00
48652;BME280;34442;52.362;-1.302;2023-08-07T03:07:02;100646.09;;;14.29;100.00
48652;BME280;34442;52.362;-1.302;2023-08-07T03:09:28;100641.75;;;14.28;100.00
48652;BME280;34442;52.362;-1.302;2023-08-07T03:11:53;100645.47;;;14.27;100.00
48652;BME280;34442;52.362;-1.302;2023-08-07T03:14:18;100641.81;;;14.21;100.00
48652;BME280;34442;52.362;-1.302;2023-08-07T03:16:45;100644.75;;;14.20;100.00
48652;BME280;34442;52.362;-1.302;2023-08-07T03:19:11;100644.34;;;14.16;100.00
48652;BME280;34442;52.362;-1.302;2023-08-07T03:21:36;100650.63;;;14.10;100.00
48652;BME280;34442;52.362;-1.302;2023-08-07T03:24:02;100656.28;;;14.08;100.00
48652;BME280;34442;52.362;-1.302;2023-08-07T03:26:27;100651.94;;;14.07;100.00
48652;BME280;34442;52.362;-1.302;2023-08-07T03:28:53;100645.31;;;14.03;100.00
48652;BME280;34442;52.362;-1.302;2023-08-07T03:31:18;100649.66;;;14.04;100.00
48652;BME280;34442;52.362;-1.302;2023-08-07T03:33:44;100646.13;;;14.04;100.00
48652;BME280;34442;52.362;-1.302;2023-08-07T03:36:09;100644.25;;;14.04;100.00
48652;BME280;34442;52.362;-1.302;2023-08-07T03:38:34;100645.97;;;13.99;100.00
48652;BME280;34442;52.362;-1.302;2023-08-07T03:41:00;100638.09;;;13.97;100.00
48652;BME280;34442;52.362;-1.302;2023-08-07T03:43:25;100636.59;;;14.01;100.00
48652;BME280;34442;52.362;-1.302;2023-08-07T03:45:55;100643.88;;;14.01;100.00
48652;BME280;34442;52.362;-1.302;2023-08-07T03:48:21;100637.41;;;14.02;100.00
48652;BME280;34442;52.362;-1.302;2023-08-07T03:50:47;100639.97;;;13.97;100.00
48652;BME280;34442;52.362;-1.302;2023-08-07T03:53:12;100640.19;;;13.95;100.00
48652;BME280;34442;52.362;-1.302;2023-08-07T03:55:38;100635.81;;;13.94;100.00
48652;BME280;34442;52.362;-1.302;2023-08-07T03:58:03;100637.69;;;13.94;100.00
48652;BME280;34442;52.362;-1.302;2023-08-07T04:00:28;100639.81;;;13.92;100.00
48652;BME280;34442;52.362;-1.302;2023-08-07T04:02:54;100630.88;;;13.91;100.00
48652;BME280;34442;52.362;-1.302;2023-08-07T04:05:20;100628.81;;;13.86;100.00
48652;BME280;34442;52.362;-1.302;2023-08-07T04:07:45;100638.59;;;13.87;100.00
48652;BME280;34442;52.362;-1.302;2023-08-07T04:10:10;100632.97;;;13.89;100.00
48652;BME280;34442;52.362;-1.302;2023-08-07T04:12:36;100634.44;;;13.85;100.00
48652;BME280;34442;52.362;-1.302;2023-08-07T04:15:01;100633.25;;;13.81;100.00
48652;BME280;34442;52.362;-1.302;2023-08-07T04:17:27;100630.53;;;13.81;100.00
48652;BME280;34442;52.362;-1.302;2023-08-07T04:19:53;100635.78;;;13.76;100.00
48652;BME280;34442;52.362;-1.302;2023-08-07T04:22:18;100635.16;;;13.74;100.00
48652;BME280;34442;52.362;-1.302;2023-08-07T04:24:43;100633.91;;;13.76;100.00
48652;BME280;34442;52.362;-1.302;2023-08-07T04:27:09;100640.38;;;13.75;100.00
48652;BME280;34442;52.362;-1.302;2023-08-07T04:29:34;100635.78;;;13.76;100.00
48652;BME280;34442;52.362;-1.302;2023-08-07T04:32:00;100625.56;;;13.78;100.00
48652;BME280;34442;52.362;-1.302;2023-08-07T04:34:25;100629.75;;;13.74;100.00
48652;BME280;34442;52.362;-1.302;2023-08-07T04:36:51;100637.66;;;13.75;100.00
48652;BME280;34442;52.362;-1.302;2023-08-07T04:39:20;100631.22;;;13.76;100.00
48652;BME280;34442;52.362;-1.302;2023-08-07T04:41:45;100636.63;;;13.76;100.00
48652;BME280;34442;52.362;-1.302;2023-08-07T04:44:10;100643.66;;;13.77;100.00
48652;BME280;34442;52.362;-1.302;2023-08-07T04:46:36;100642.03;;;13.76;100.00
48652;BME280;34442;52.362;-1.302;2023-08-07T04:49:01;100634.50;;;13.78;100.00
48652;BME280;34442;52.362;-1.302;2023-08-07T04:51:26;100633.47;;;13.79;100.00
48652;BME280;34442;52.362;-1.302;2023-08-07T04:53:53;100640.56;;;13.74;100.00
48652;BME280;34442;52.362;-1.302;2023-08-07T04:56:22;100636.47;;;13.71;100.00
48652;BME280;34442;52.362;-1.302;2023-08-07T04:58:47;100641.47;;;13.68;100.00
48652;BME280;34442;52.362;-1.302;2023-08-07T05:01:12;100640.81;;;13.72;100.00
48652;BME280;34442;52.362;-1.302;2023-08-07T05:03:38;100626.47;;;13.72;100.00
48652;BME280;34442;52.362;-1.302;2023-08-07T05:06:03;100633.75;;;13.71;100.00
48652;BME280;34442;52.362;-1.302;2023-08-07T05:08:28;100638.94;;;13.73;100.00
48652;BME280;34442;52.362;-1.302;2023-08-07T05:10:54;100635.78;;;13.76;100.00
48652;BME280;34442;52.362;-1.302;2023-08-07T05:13:19;100633.91;;;13.76;100.00
48652;BME280;34442;52.362;-1.302;2023-08-07T05:15:47;100641.34;;;13.81;100.00
48652;BME280;34442;52.362;-1.302;2023-08-07T05:18:13;100627.59;;;13.82;100.00
48652;BME280;34442;52.362;-1.302;2023-08-07T05:20:38;100630.94;;;13.84;100.00
48652;BME280;34442;52.362;-1.302;2023-08-07T05:23:03;100631.50;;;13.86;100.00
48652;BME280;34442;52.362;-1.302;2023-08-07T05:25:29;100621.75;;;13.85;100.00
48652;BME280;34442;52.362;-1.302;2023-08-07T05:27:54;100631.31;;;13.88;100.00
48652;BME280;34442;52.362;-1.302;2023-08-07T05:30:20;100631.69;;;13.92;100.00
48652;BME280;34442;52.362;-1.302;2023-08-07T05:32:45;100626.28;;;13.92;100.00
48652;BME280;34442;52.362;-1.302;2023-08-07T05:35:11;100626.69;;;13.95;100.00
48652;BME280;34442;52.362;-1.302;2023-08-07T05:37:36;100624.41;;;13.92;100.00
48652;BME280;34442;52.362;-1.302;2023-08-07T05:40:02;100623.78;;;13.90;100.00
48652;BME280;34442;52.362;-1.302;2023-08-07T05:42:28;100626.50;;;13.90;100.00
48652;BME280;34442;52.362;-1.302;2023-08-07T05:44:53;100628.19;;;13.91;100.00
48652;BME280;34442;52.362;-1.302;2023-08-07T05:47:19;100627.94;;;13.93;100.00
48652;BME280;34442;52.362;-1.302;2023-08-07T05:49:44;100634.78;;;13.95;100.00
48652;BME280;34442;52.362;-1.302;2023-08-07T05:52:10;100635.16;;;13.99;100.00
48652;BME280;34442;52.362;-1.302;2023-08-07T05:54:35;100629.75;;;13.99;100.00
48652;BME280;34442;52.362;-1.302;2023-08-07T05:57:01;100637.22;;;14.03;100.00
48652;BME280;34442;52.362;-1.302;2023-08-07T05:59:26;100640.06;;;14.08;100.00
48652;BME280;34442;52.362;-1.302;2023-08-07T06:01:53;100635.03;;;14.12;100.00
48652;BME280;34442;52.362;-1.302;2023-08-07T06:04:19;100638.13;;;14.15;100.00
48652;BME280;34442;52.362;-1.302;2023-08-07T06:06:44;100638.03;;;14.22;100.00
48652;BME280;34442;52.362;-1.302;2023-08-07T06:09:11;100642.38;;;14.23;100.00
48652;BME280;34442;52.362;-1.302;2023-08-07T06:11:36;100643.44;;;14.22;100.00
48652;BME280;34442;52.362;-1.302;2023-08-07T06:14:01;100642.94;;;14.32;100.00
48652;BME280;34442;52.362;-1.302;2023-08-07T06:16:27;100646.38;;;14.39;100.00
48652;BME280;34442;52.362;-1.302;2023-08-07T06:18:53;100649.47;;;14.43;100.00
48652;BME280;34442;52.362;-1.302;2023-08-07T06:21:18;100647.81;;;14.42;100.00
48652;BME280;34442;52.362;-1.302;2023-08-07T06:23:45;100647.72;;;14.48;100.00
48652;BME280;34442;52.362;-1.302;2023-08-07T06:26:12;100650.25;;;14.50;100.00
48652;BME280;34442;52.362;-1.302;2023-08-07T06:28:40;100648.78;;;14.47;100.00
48652;BME280;34442;52.362;-1.302;2023-08-07T06:31:08;100654.31;;;14.59;100.00
48652;BME280;34442;52.362;-1.302;2023-08-07T06:33:34;100654.91;;;14.61;100.00
48652;BME280;34442;52.362;-1.302;2023-08-07T06:36:01;100658.59;;;14.67;100.00
48652;BME280;34442;52.362;-1.302;2023-08-07T06:38:26;100664.81;;;14.67;100.00
48652;BME280;34442;52.362;-1.302;2023-08-07T06:40:51;100658.22;;;14.63;100.00
48652;BME280;34442;52.362;-1.302;2023-08-07T06:43:19;100651.75;;;14.64;100.00
48652;BME280;34442;52.362;-1.302;2023-08-07T06:45:55;100653.56;;;14.70;100.00
48652;BME280;34442;52.362;-1.302;2023-08-07T06:48:20;100661.81;;;14.75;100.00
48652;BME280;34442;52.362;-1.302;2023-08-07T06:50:47;100658.88;;;14.77;100.00
48652;BME280;34442;52.362;-1.302;2023-08-07T06:53:13;100659.09;;;14.75;100.00
48652;BME280;34442;52.362;-1.302;2023-08-07T06:55:38;100662.78;;;14.81;100.00
48652;BME280;34442;52.362;-1.302;2023-08-07T06:58:04;100660.69;;;14.83;100.00
48652;BME280;34442;52.362;-1.302;2023-08-07T07:00:29;100659.31;;;14.92;100.00
48652;BME280;34442;52.362;-1.302;2023-08-07T07:02:57;100655.09;;;14.96;100.00
48652;BME280;34442;52.362;-1.302;2023-08-07T07:05:23;100656.97;;;14.96;100.00
48652;BME280;34442;52.362;-1.302;2023-08-07T07:07:48;100651.56;;;14.96;100.00
48652;BME280;34442;52.362;-1.302;2023-08-07T07:10:14;100653.19;;;14.97;100.00
48652;BME280;34442;52.362;-1.302;2023-08-07T07:12:39;100661.25;;;15.03;100.00
48652;BME280;34442;52.362;-1.302;2023-08-07T07:15:05;100657.16;;;15.12;100.00
48652;BME280;34442;52.362;-1.302;2023-08-07T07:17:30;100651.88;;;15.18;100.00
48652;BME280;34442;52.362;-1.302;2023-08-07T07:19:56;100649.41;;;15.16;100.00
48652;BME280;34442;52.362;-1.302;2023-08-07T07:22:22;100663.19;;;15.14;100.00
48652;BME280;34442;52.362;-1.302;2023-08-07T07:24:47;100649.78;;;15.20;100.00
48652;BME280;34442;52.362;-1.302;2023-08-07T07:27:13;100658.47;;;15.22;100.00
48652;BME280;34442;52.362;-1.302;2023-08-07T07:29:38;100651.69;;;15.31;100.00
48652;BME280;34442;52.362;-1.302;2023-08-07T07:32:04;100647.94;;;15.32;100.00
48652;BME280;34442;52.362;-1.302;2023-08-07T07:34:30;100643.56;;;15.31;100.00
48652;BME280;34442;52.362;-1.302;2023-08-07T07:36:55;100653.72;;;15.35;100.00
48652;BME280;34442;52.362;-1.302;2023-08-07T07:39:21;100647.59;;;15.40;100.00
48652;BME280;34442;52.362;-1.302;2023-08-07T07:41:49;100653.88;;;15.52;100.00
48652;BME280;34442;52.362;-1.302;2023-08-07T07:44:15;100651.75;;;15.54;100.00
48652;BME280;34442;52.362;-1.302;2023-08-07T07:46:40;100654.44;;;15.54;100.00
48652;BME280;34442;52.362;-1.302;2023-08-07T07:49:05;100660.84;;;15.60;100.00
48652;BME280;34442;52.362;-1.302;2023-08-07T07:51:31;100657.94;;;15.73;100.00
48652;BME280;34442;52.362;-1.302;2023-08-07T07:53:58;100657.94;;;15.73;100.00
48652;BME280;34442;52.362;-1.302;2023-08-07T07:56:23;100664.09;;;15.80;100.00
48652;BME280;34442;52.362;-1.302;2023-08-07T07:58:49;100670.69;;;15.84;100.00
48652;BME280;34442;52.362;-1.302;2023-08-07T08:01:14;100663.84;;;15.94;100.00
48652;BME280;34442;52.362;-1.302;2023-08-07T08:03:40;100672.09;;;15.99;100.00
48652;BME280;34442;52.362;-1.302;2023-08-07T08:06:05;100669.50;;;16.04;100.00
48652;BME280;34442;52.362;-1.302;2023-08-07T08:08:31;100668.56;;;16.10;100.00
48652;BME280;34442;52.362;-1.302;2023-08-07T08:10:56;100670.69;;;16.20;100.00
48652;BME280;34442;52.362;-1.302;2023-08-07T08:13:21;100675.53;;;16.18;100.00
48652;BME280;34442;52.362;-1.302;2023-08-07T08:15:47;100674.56;;;16.24;100.00
48652;BME280;34442;52.362;-1.302;2023-08-07T08:18:13;100659.94;;;16.36;100.00
48652;BME280;34442;52.362;-1.302;2023-08-07T08:20:38;100660.16;;;16.47;100.00
48652;BME280;34442;52.362;-1.302;2023-08-07T08:23:04;100662.75;;;16.53;100.00
48652;BME280;34442;52.362;-1.302;2023-08-07T08:25:31;100671.00;;;16.58;100.00
48652;BME280;34442;52.362;-1.302;2023-08-07T08:27:58;100671.22;;;16.69;100.00
48652;BME280;34442;52.362;-1.302;2023-08-07T08:30:23;100664.38;;;16.66;100.00
48652;BME280;34442;52.362;-1.302;2023-08-07T08:32:48;100670.97;;;16.70;100.00
48652;BME280;34442;52.362;-1.302;2023-08-07T08:35:14;100662.50;;;16.67;100.00
48652;BME280;34442;52.362;-1.302;2023-08-07T08:37:39;100662.09;;;16.86;100.00
48652;BME280;34442;52.362;-1.302;2023-08-07T08:40:06;100669.72;;;17.01;100.00
48652;BME280;34442;52.362;-1.302;2023-08-07T08:42:33;100668.66;;;17.02;100.00
48652;BME280;34442;52.362;-1.302;2023-08-07T08:45:00;100654.88;;;17.21;100.00
48652;BME280;34442;52.362;-1.302;2023-08-07T08:47:26;100659.94;;;17.29;100.00
48652;BME280;34442;52.362;-1.302;2023-08-07T08:50:01;100659.09;;;17.28;100.00
48652;BME280;34442;52.362;-1.302;2023-08-07T08:52:28;100656.28;;;17.23;100.00
48652;BME280;34442;52.362;-1.302;2023-08-07T08:54:55;100647.16;;;17.29;100.00
48652;BME280;34442;52.362;-1.302;2023-08-07T08:57:21;100657.25;;;17.46;100.00
48652;BME280;34442;52.362;-1.302;2023-08-07T08:59:46;100658.31;;;17.61;100.00
48652;BME280;34442;52.362;-1.302;2023-08-07T09:02:12;100652.88;;;17.45;100.00
48652;BME280;34442;52.362;-1.302;2023-08-07T09:04:38;100654.50;;;17.74;100.00
48652;BME280;34442;52.362;-1.302;2023-08-07T09:07:04;100662.84;;;17.73;100.00
48652;BME280;34442;52.362;-1.302;2023-08-07T09:09:30;100665.22;;;17.69;100.00
48652;BME280;34442;52.362;-1.302;2023-08-07T09:11:57;100655.88;;;17.77;100.00
48652;BME280;34442;52.362;-1.302;2023-08-07T09:14:27;100656.19;;;17.80;100.00
48652;BME280;34442;52.362;-1.302;2023-08-07T09:16:58;100654.28;;;17.98;100.00
48652;BME280;34442;52.362;-1.302;2023-08-07T09:19:24;100648.53;;;18.11;100.00
48652;BME280;34442;52.362;-1.302;2023-08-07T09:21:50;100650.81;;;18.19;100.00
48652;BME280;34442;52.362;-1.302;2023-08-07T09:24:15;100649.38;;;18.33;100.00
48652;BME280;34442;52.362;-1.302;2023-08-07T09:26:43;100646.22;;;18.42;100.00
48652;BME280;34442;52.362;-1.302;2023-08-07T09:29:09;100644.94;;;18.27;100.00
48652;BME280;34442;52.362;-1.302;2023-08-07T09:31:36;100656.44;;;17.96;100.00
48652;BME280;34442;52.362;-1.302;2023-08-07T09:34:03;100653.81;;;17.84;100.00
48652;BME280;34442;52.362;-1.302;2023-08-07T09:36:32;100649.84;;;18.08;100.00
48652;BME280;34442;52.362;-1.302;2023-08-07T09:39:02;100654.00;;;18.33;100.00
48652;BME280;34442;52.362;-1.302;2023-08-07T09:41:29;100653.94;;;18.50;100.00
48652;BME280;34442;52.362;-1.302;2023-08-07T09:43:55;100650.56;;;18.81;100.00
48652;BME280;34442;52.362;-1.302;2023-08-07T09:46:20;100647.13;;;18.69;100.00
48652;BME280;34442;52.362;-1.302;2023-08-07T09:48:46;100641.41;;;18.49;100.00
48652;BME280;34442;52.362;-1.302;2023-08-07T09:51:11;100639.03;;;18.74;100.00
48652;BME280;34442;52.362;-1.302;2023-08-07T09:53:37;100641.34;;;19.09;98.22
48652;BME280;34442;52.362;-1.302;2023-08-07T09:56:02;100640.97;;;19.28;97.23
48652;BME280;34442;52.362;-1.302;2023-08-07T09:58:29;100633.19;;;19.42;95.70
48652;BME280;34442;52.362;-1.302;2023-08-07T10:00:54;100627.19;;;19.40;96.44
48652;BME280;34442;52.362;-1.302;2023-08-07T10:03:25;100629.94;;;19.45;96.40
48652;BME280;34442;52.362;-1.302;2023-08-07T10:05:51;100633.06;;;19.26;97.48
48652;BME280;34442;52.362;-1.302;2023-08-07T10:08:17;100628.78;;;18.81;98.34
48652;BME280;34442;52.362;-1.302;2023-08-07T10:10:43;100622.34;;;18.49;99.79
48652;BME280;34442;52.362;-1.302;2023-08-07T10:13:10;100630.09;;;18.57;100.00
48652;BME280;34442;52.362;-1.302;2023-08-07T10:15:37;100626.06;;;18.81;98.31
48652;BME280;34442;52.362;-1.302;2023-08-07T10:18:02;100617.84;;;19.03;97.04
48652;BME280;34442;52.362;-1.302;2023-08-07T10:20:30;100616.16;;;19.29;95.46
48652;BME280;34442;52.362;-1.302;2023-08-07T10:23:21;100609.97;;;19.66;86.89
48652;BME280;34442;52.362;-1.302;2023-08-07T10:25:48;100610.59;;;19.78;93.38
48652;BME280;34442;52.362;-1.302;2023-08-07T10:28:16;100602.41;;;19.78;93.34
48652;BME280;34442;52.362;-1.302;2023-08-07T10:30:44;100605.13;;;19.73;93.25
48652;BME280;34442;52.362;-1.302;2023-08-07T10:33:10;100597.44;;;19.70;92.62
48652;BME280;34442;52.362;-1.302;2023-08-07T10:35:37;100597.34;;;19.60;92.32
48652;BME280;34442;52.362;-1.302;2023-08-07T10:38:08;100577.28;;;19.71;87.52
48652;BME280;34442;52.362;-1.302;2023-08-07T10:40:34;100582.25;;;19.79;90.21
48652;BME280;34442;52.362;-1.302;2023-08-07T10:43:20;100581.47;;;19.84;80.52
48652;BME280;34442;52.362;-1.302;2023-08-07T10:45:48;100580.97;;;19.92;89.36
48652;BME280;34442;52.362;-1.302;2023-08-07T10:48:17;100579.16;;;20.08;88.15
48652;BME280;34442;52.362;-1.302;2023-08-07T10:50:56;100576.25;;;20.30;87.62
48652;BME280;34442;52.362;-1.302;2023-08-07T10:55:53;100578.47;;;20.38;88.05
48652;BME280;34442;52.362;-1.302;2023-08-07T10:58:26;100580.69;;;19.94;88.62
48652;BME280;34442;52.362;-1.302;2023-08-07T11:03:43;100577.84;;;19.78;90.47
48652;BME280;34442;52.362;-1.302;2023-08-07T11:06:10;100580.69;;;19.94;89.70
48652;BME280;34442;52.362;-1.302;2023-08-07T11:08:36;100574.09;;;19.85;89.26
48652;BME280;34442;52.362;-1.302;2023-08-07T11:11:06;100574.72;;;19.97;88.07
48652;BME280;34442;52.362;-1.302;2023-08-07T11:13:33;100573.22;;;20.26;88.05
48652;BME280;34442;52.362;-1.302;2023-08-07T11:16:00;100571.38;;;20.42;87.48
48652;BME280;34442;52.362;-1.302;2023-08-07T11:18:26;100570.38;;;20.59;87.83
48652;BME280;34442;52.362;-1.302;2023-08-07T11:20:53;100558.66;;;20.73;87.29
48652;BME280;34442;52.362;-1.302;2023-08-07T11:23:27;100562.75;;;20.66;85.02
48652;BME280;34442;52.362;-1.302;2023-08-07T11:25:54;100563.28;;;20.68;86.02
48652;BME280;34442;52.362;-1.302;2023-08-07T11:28:20;100553.38;;;20.41;86.54
48652;BME280;34442;52.362;-1.302;2023-08-07T11:30:52;100552.63;;;20.61;85.13
48652;BME280;34442;52.362;-1.302;2023-08-07T11:33:18;100554.50;;;20.50;86.65
48652;BME280;34442;52.362;-1.302;2023-08-07T11:35:45;100553.84;;;20.28;86.94
48652;BME280;34442;52.362;-1.302;2023-08-07T11:38:11;100559.50;;;20.11;87.18
48652;BME280;34442;52.362;-1.302;2023-08-07T11:40:36;100545.03;;;20.16;86.87
48652;BME280;34442;52.362;-1.302;2023-08-07T11:43:02;100546.81;;;20.42;85.96
48652;BME280;34442;52.362;-1.302;2023-08-07T11:45:28;100551.16;;;20.38;86.01
48652;BME280;34442;52.362;-1.302;2023-08-07T11:47:54;100544.97;;;20.63;84.43
48652;BME280;34442;52.362;-1.302;2023-08-07T11:52:48;100557.06;;;20.20;84.51
48652;BME280;34442;52.362;-1.302;2023-08-07T11:55:17;100555.59;;;19.92;83.22
48652;BME280;34442;52.362;-1.302;2023-08-07T11:57:46;100543.91;;;20.01;84.78
48652;BME280;34442;52.362;-1.302;2023-08-07T12:00:12;100545.34;;;20.19;83.98
48652;BME280;34442;52.362;-1.302;2023-08-07T12:02:44;100546.00;;;20.47;80.46
48652;BME280;34442;52.362;-1.302;2023-08-07T12:05:11;100548.81;;;20.62;81.58
48652;BME280;34442;52.362;-1.302;2023-08-07T12:07:39;100533.81;;;20.70;79.31
48652;BME280;34442;52.362;-1.302;2023-08-07T12:10:08;100540.84;;;20.50;80.28
48652;BME280;34442;52.362;-1.302;2023-08-07T12:12:38;100538.09;;;20.45;80.27
48652;BME280;34442;52.362;-1.302;2023-08-07T12:15:07;100537.91;;;20.72;79.26
48652;BME280;34442;52.362;-1.302;2023-08-07T12:17:33;100534.06;;;20.73;79.61
48652;BME280;34442;52.362;-1.302;2023-08-07T12:19:59;100532.19;;;20.79;79.28
48652;BME280;34442;52.362;-1.302;2023-08-07T12:22:27;100534.50;;;20.40;77.93
48652;BME280;34442;52.362;-1.302;2023-08-07T12:24:53;100540.16;;;20.23;79.18
48652;BME280;34442;52.362;-1.302;2023-08-07T12:27:19;100525.16;;;20.20;79.44
48652;BME280;34442;52.362;-1.302;2023-08-07T12:29:45;100525.91;;;20.05;79.72
48652;BME280;34442;52.362;-1.302;2023-08-07T12:32:10;100529.44;;;20.01;79.24
48652;BME280;34442;52.362;-1.302;2023-08-07T12:34:36;100533.50;;;19.98;79.67
48652;BME280;34442;52.362;-1.302;2023-08-07T12:37:03;100525.81;;;19.90;79.79
48652;BME280;34442;52.362;-1.302;2023-08-07T12:39:29;100528.81;;;19.89;79.34
48652;BME280;34442;52.362;-1.302;2023-08-07T12:41:54;100529.69;;;19.99;79.27